createdAt,value
2022-08-03T00:02:17.733Z,101237.17
2022-08-03T00:04:45.152Z,101233.96
2022-08-03T00:07:11.943Z,101233.80
2022-08-03T00:09:38.683Z,101234.16
2022-08-03T00:12:08.785Z,101232.89
2022-08-03T00:14:35.934Z,101231.86
2022-08-03T00:17:03.476Z,101227.45
2022-08-03T00:19:30.407Z,101223.85
2022-08-03T00:21:57.162Z,101223.29
2022-08-03T00:24:23.982Z,101221.88
2022-08-03T00:26:50.909Z,101218.71
2022-08-03T00:29:17.831Z,101217.73
2022-08-03T00:31:52.393Z,101219.71
2022-08-03T00:34:36.627Z,101216.14
2022-08-03T00:37:07.437Z,101216.35
2022-08-03T00:39:34.497Z,101211.23
2022-08-03T00:42:06.268Z,101211.59
2022-08-03T00:44:41.189Z,101213.32
2022-08-03T00:47:10.448Z,101211.52
2022-08-03T00:49:41.103Z,101204.44
2022-08-03T00:52:11.201Z,101204.48
2022-08-03T00:54:39.097Z,101204.88
2022-08-03T00:57:07.254Z,101205.94
2022-08-03T00:59:34.647Z,101198.48
2022-08-03T01:02:01.582Z,101200.95
2022-08-03T01:04:28.465Z,101197.57
2022-08-03T01:07:11.391Z,101199.35
2022-08-03T01:10:03.334Z,101195.41
2022-08-03T01:12:58.047Z,101200.37
2022-08-03T01:15:33.656Z,101198.74
2022-08-03T01:18:25.501Z,101197.50
2022-08-03T01:20:58.811Z,101192.69
2022-08-03T01:24:06.128Z,101193.92
2022-08-03T01:26:45.398Z,101186.46
2022-08-03T01:29:49.820Z,101186.11
2022-08-03T01:33:00.980Z,101182.52
2022-08-03T01:35:38.637Z,101185.91
2022-08-03T01:38:42.098Z,101181.11
2022-08-03T01:41:20.538Z,101182.67
2022-08-03T01:43:59.068Z,101177.89
2022-08-03T01:46:40.564Z,101177.87
2022-08-03T01:49:18.296Z,101174.13
2022-08-03T01:52:03.332Z,101174.85
2022-08-03T01:54:40.872Z,101175.04
2022-08-03T01:57:09.701Z,101169.86
2022-08-03T01:59:40.550Z,101167.03
2022-08-03T02:02:29.116Z,101165.61
2022-08-03T02:05:01.571Z,101171.97
2022-08-03T02:07:32.081Z,101169.52
2022-08-03T02:10:03.030Z,101170.63
2022-08-03T02:12:33.083Z,101172.75
2022-08-03T02:15:02.292Z,101174.53
2022-08-03T02:17:39.362Z,101173.26
2022-08-03T02:20:12.202Z,101174.27
2022-08-03T02:22:44.931Z,101169.33
2022-08-03T02:25:14.468Z,101165.75
2022-08-03T02:28:01.941Z,101169.16
2022-08-03T02:30:41.110Z,101171.55
2022-08-03T02:33:24.817Z,101173.67
2022-08-03T02:35:54.286Z,101172.18
2022-08-03T02:38:29.024Z,101169.66
2022-08-03T02:40:58.656Z,101171.77
2022-08-03T02:43:28.737Z,101170.17
2022-08-03T02:46:13.716Z,101171.80
2022-08-03T02:48:43.172Z,101169.98
2022-08-03T02:51:10.792Z,101168.22
2022-08-03T02:53:40.463Z,101170.23
2022-08-03T02:56:09.925Z,101170.77
2022-08-03T02:58:40.288Z,101170.61
2022-08-03T03:01:07.806Z,101168.27
2022-08-03T03:03:39.957Z,101171.48
2022-08-03T03:06:13.629Z,101175.91
2022-08-03T03:08:42.698Z,101175.75
2022-08-03T03:11:11.358Z,101177.50
2022-08-03T03:13:41.679Z,101175.88
2022-08-03T03:16:10.122Z,101174.83
2022-08-03T03:18:38.561Z,101176.23
2022-08-03T03:21:09.980Z,101177.15
2022-08-03T03:23:40.013Z,101177.34
2022-08-03T03:26:08.246Z,101175.57
2022-08-03T03:28:39.696Z,101180.39
2022-08-03T03:31:08.491Z,101180.41
2022-08-03T03:33:37.308Z,101179.95
2022-08-03T03:36:07.294Z,101176.28
2022-08-03T03:38:34.330Z,101178.63
2022-08-03T03:41:02.383Z,101176.46
2022-08-03T03:43:29.630Z,101177.20
2022-08-03T03:45:58.662Z,101178.11
2022-08-03T03:48:26.428Z,101179.19
2022-08-03T03:50:53.653Z,101178.49
2022-08-03T03:53:20.536Z,101181.21
2022-08-03T03:55:57.918Z,101181.55
2022-08-03T03:58:32.403Z,101177.66
2022-08-03T04:01:00.436Z,101176.93
2022-08-03T04:03:27.674Z,101173.91
2022-08-03T04:06:13.049Z,101171.06
2022-08-03T04:08:59.460Z,101172.14
2022-08-03T04:11:49.008Z,101173.71
2022-08-03T04:14:32.538Z,101172.76
2022-08-03T04:17:04.945Z,101174.37
2022-08-03T04:19:37.789Z,101173.10
2022-08-03T04:22:11.333Z,101172.16
2022-08-03T04:24:53.701Z,101171.76
2022-08-03T04:27:29.161Z,101173.83
2022-08-03T04:29:59.384Z,101176.49
2022-08-03T04:32:28.746Z,101179.48
2022-08-03T04:34:56.265Z,101182.30
2022-08-03T04:37:39.588Z,101181.73
2022-08-03T04:40:13.349Z,101185.23
2022-08-03T04:42:42.029Z,101188.59
2022-08-03T04:45:14.902Z,101190.38
2022-08-03T04:47:42.738Z,101195.73
2022-08-03T04:50:13.516Z,101198.30
2022-08-03T04:52:42.160Z,101198.69
2022-08-03T04:55:09.744Z,101198.14
2022-08-03T04:57:36.667Z,101195.24
2022-08-03T05:00:06.565Z,101193.77
2022-08-03T05:02:33.650Z,101194.60
2022-08-03T05:05:00.745Z,101191.38
2022-08-03T05:07:34.071Z,101188.14
2022-08-03T05:10:16.109Z,101193.59
2022-08-03T05:12:45.871Z,101191.39
2022-08-03T05:15:13.178Z,101193.83
2022-08-03T05:17:40.316Z,101194.67
2022-08-03T05:20:08.124Z,101190.19
2022-08-03T05:22:34.876Z,101191.70
2022-08-03T05:25:02.456Z,101194.60
2022-08-03T05:27:29.628Z,101191.70
2022-08-03T05:29:56.637Z,101194.94
2022-08-03T05:32:43.409Z,101192.88
2022-08-03T05:36:00.477Z,101195.79
2022-08-03T05:37:57.071Z,101199.03
2022-08-03T05:40:24.854Z,101201.36
2022-08-03T05:42:54.067Z,101203.16
2022-08-03T05:45:23.278Z,101202.71
2022-08-03T05:47:53.662Z,101204.27
2022-08-03T05:50:21.066Z,101202.77
2022-08-03T05:52:47.858Z,101200.23
2022-08-03T05:55:16.024Z,101200.78
2022-08-03T05:57:43.731Z,101196.14
2022-08-03T06:00:12.817Z,101198.89
2022-08-03T06:02:43.507Z,101197.58
2022-08-03T06:05:10.952Z,101200.40
2022-08-03T06:07:37.982Z,101198.65
2022-08-03T06:10:35.712Z,101196.30
2022-08-03T06:12:52.776Z,101196.76
2022-08-03T06:15:20.891Z,101198.88
2022-08-03T06:17:52.335Z,101196.91
2022-08-03T06:20:21.480Z,101189.54
2022-08-03T06:23:00.189Z,101193.91
2022-08-03T06:25:28.951Z,101189.96
2022-08-03T06:27:55.852Z,101185.89
2022-08-03T06:30:22.640Z,101189.57
2022-08-03T06:32:52.078Z,101188.46
2022-08-03T06:35:20.014Z,101187.13
2022-08-03T06:37:52.041Z,101187.96
2022-08-03T06:40:32.134Z,101187.67
2022-08-03T06:43:01.754Z,101190.96
2022-08-03T06:45:31.758Z,101186.40
2022-08-03T06:48:06.119Z,101186.81
2022-08-03T06:50:35.485Z,101184.28
2022-08-03T06:53:04.377Z,101184.93
2022-08-03T06:55:32.473Z,101182.75
2022-08-03T06:58:00.012Z,101183.52
2022-08-03T07:00:31.278Z,101182.47
2022-08-03T07:02:58.569Z,101180.36
2022-08-03T07:05:25.863Z,101179.52
2022-08-03T07:07:57.646Z,101178.08
2022-08-03T07:10:25.094Z,101180.39
2022-08-03T07:12:55.660Z,101179.36
2022-08-03T07:15:54.631Z,101175.36
2022-08-03T07:18:10.588Z,101177.77
2022-08-03T07:20:37.381Z,101180.92
2022-08-03T07:23:04.167Z,101179.75
2022-08-03T07:25:30.905Z,101175.19
2022-08-03T07:27:57.713Z,101174.33
2022-08-03T07:30:25.240Z,101170.86
2022-08-03T07:32:51.938Z,101171.19
2022-08-03T07:35:25.117Z,101171.46
2022-08-03T07:37:54.903Z,101174.59
2022-08-03T07:40:22.975Z,101175.49
2022-08-03T07:42:53.365Z,101176.80
2022-08-03T07:45:23.493Z,101177.55
2022-08-03T07:47:53.190Z,101176.84
2022-08-03T07:50:22.543Z,101179.13
2022-08-03T07:52:52.165Z,101173.56
2022-08-03T07:55:22.046Z,101175.88
2022-08-03T07:58:16.536Z,101178.14
2022-08-03T08:00:46.213Z,101170.85
2022-08-03T08:03:13.476Z,101171.92
2022-08-03T08:05:40.266Z,101176.69
2022-08-03T08:08:07.511Z,101171.27
2022-08-03T08:10:35.247Z,101170.08
2022-08-03T08:13:03.483Z,101169.72
2022-08-03T08:15:31.650Z,101171.60
2022-08-03T08:18:01.488Z,101177.27
2022-08-03T08:20:37.970Z,101178.02
2022-08-03T08:23:28.377Z,101176.46
2022-08-03T08:25:56.229Z,101175.14
2022-08-03T08:28:30.205Z,101173.59
2022-08-03T08:31:00.042Z,101169.06
2022-08-03T08:33:37.331Z,101170.65
2022-08-03T08:36:14.736Z,101173.02
2022-08-03T08:38:42.732Z,101169.89
2022-08-03T08:41:12.081Z,101170.21
2022-08-03T08:43:39.220Z,101162.80
2022-08-03T08:46:10.227Z,101165.27
2022-08-03T08:48:44.192Z,101166.19
2022-08-03T08:51:13.727Z,101164.74
2022-08-03T08:53:47.819Z,101164.55
2022-08-03T08:56:16.975Z,101164.61
2022-08-03T08:58:54.302Z,101163.80
2022-08-03T09:01:22.022Z,101163.94
2022-08-03T09:03:50.139Z,101158.73
2022-08-03T09:06:17.439Z,101161.33
2022-08-03T09:08:44.190Z,101157.41
2022-08-03T09:11:12.013Z,101157.63
2022-08-03T09:13:40.218Z,101157.65
2022-08-03T09:16:22.123Z,101150.75
2022-08-03T09:18:54.237Z,101154.41
2022-08-03T09:21:32.924Z,101147.46
2022-08-03T09:24:05.321Z,101144.16
2022-08-03T09:26:37.968Z,101139.09
2022-08-03T09:29:14.047Z,101136.27
2022-08-03T09:31:46.974Z,101140.20
2022-08-03T09:34:17.147Z,101140.59
2022-08-03T09:36:47.783Z,101135.85
2022-08-03T09:39:40.811Z,101137.23
2022-08-03T09:42:19.324Z,101141.27
2022-08-03T09:44:53.055Z,101141.60
2022-08-03T09:47:44.920Z,101140.55
2022-08-03T09:50:13.032Z,101138.75
2022-08-03T09:52:52.047Z,101138.04
2022-08-03T09:56:34.644Z,101134.41
2022-08-03T09:58:10.585Z,101139.41
2022-08-03T10:01:06.253Z,101135.77
2022-08-03T10:04:02.695Z,101132.71
2022-08-03T10:06:28.844Z,101129.25
2022-08-03T10:09:13.946Z,101128.00
2022-08-03T10:11:43.009Z,101124.02
2022-08-03T10:14:19.358Z,101119.30
2022-08-03T10:16:48.522Z,101117.15
2022-08-03T10:19:16.349Z,101114.94
2022-08-03T10:21:53.318Z,101112.17
2022-08-03T10:24:27.223Z,101112.27
2022-08-03T10:27:04.637Z,101115.40
2022-08-03T10:29:39.332Z,101117.38
2022-08-03T10:32:35.037Z,101111.48
2022-08-03T10:35:18.966Z,101107.33
2022-08-03T10:38:00.019Z,101105.65
2022-08-03T10:40:48.151Z,101105.88
2022-08-03T10:43:50.587Z,101102.02
2022-08-03T10:46:21.359Z,101099.48
2022-08-03T10:48:52.519Z,101102.00
2022-08-03T10:51:21.484Z,101095.16
2022-08-03T10:53:55.192Z,101096.98
2022-08-03T10:56:54.446Z,101092.31
2022-08-03T10:59:46.330Z,101089.08
2022-08-03T11:02:17.964Z,101088.75
2022-08-03T11:04:45.262Z,101083.95
2022-08-03T11:07:23.830Z,101084.49
2022-08-03T11:09:56.622Z,101078.81
2022-08-03T11:12:31.184Z,101077.17
2022-08-03T11:15:09.665Z,101077.63
2022-08-03T11:17:46.136Z,101080.34
2022-08-03T11:20:50.462Z,101071.81
2022-08-03T11:24:02.151Z,101074.50
2022-08-03T11:26:14.374Z,101077.62
2022-08-03T11:28:44.788Z,101082.75
2022-08-03T11:31:48.133Z,101073.83
2022-08-03T11:34:13.305Z,101073.43
2022-08-03T11:37:27.482Z,101072.34
2022-08-03T11:39:57.084Z,101064.45
2022-08-03T11:42:24.427Z,101074.54
2022-08-03T11:44:54.360Z,101076.67
2022-08-03T11:47:24.233Z,101075.20
2022-08-03T11:49:55.120Z,101071.79
2022-08-03T11:52:27.123Z,101070.09
2022-08-03T11:54:56.406Z,101066.73
2022-08-03T11:59:16.886Z,101066.61
2022-08-03T12:00:25.924Z,101067.77
2022-08-03T12:03:13.638Z,101061.36
2022-08-03T12:05:52.285Z,101049.77
2022-08-03T12:08:28.173Z,101053.65
2022-08-03T12:10:58.304Z,101054.65
2022-08-03T12:14:26.889Z,101054.66
2022-08-03T12:16:23.378Z,101045.73
2022-08-03T12:19:01.954Z,101047.91
2022-08-03T12:21:29.608Z,101048.17
2022-08-03T12:24:00.206Z,101048.41
2022-08-03T12:26:29.958Z,101050.53
2022-08-03T12:28:58.395Z,101047.16
2022-08-03T12:31:25.785Z,101044.08
2022-08-03T12:34:02.661Z,101039.56
2022-08-03T12:36:32.970Z,101038.33
2022-08-03T12:39:09.579Z,101040.24
2022-08-03T12:41:40.812Z,101032.80
2022-08-03T12:44:09.942Z,101032.48
2022-08-03T12:46:43.954Z,101034.47
2022-08-03T12:49:18.730Z,101028.61
2022-08-03T12:51:45.555Z,101026.92
2022-08-03T12:54:24.168Z,101023.27
2022-08-03T12:57:04.487Z,101016.55
2022-08-03T12:59:41.160Z,101015.52
2022-08-03T13:02:23.609Z,101016.77
2022-08-03T13:04:52.892Z,101013.67
2022-08-03T13:07:21.377Z,101014.81
2022-08-03T13:09:55.532Z,101011.90
2022-08-03T13:12:28.966Z,101011.03
2022-08-03T13:14:59.305Z,101010.18
2022-08-03T13:17:27.964Z,101009.45
2022-08-03T13:19:54.871Z,101009.64
2022-08-03T13:22:30.980Z,101006.63
2022-08-03T13:24:58.263Z,101004.73
2022-08-03T13:28:04.291Z,101006.13
2022-08-03T13:30:17.860Z,101009.92
2022-08-03T13:32:58.646Z,101012.63
2022-08-03T13:35:26.091Z,100998.95
2022-08-03T13:37:53.527Z,101000.33
2022-08-03T13:40:23.801Z,100996.63
2022-08-03T13:42:57.262Z,100995.31
2022-08-03T13:45:24.835Z,100994.39
2022-08-03T13:47:51.543Z,100992.42
2022-08-03T13:50:18.485Z,100987.23
2022-08-03T13:52:46.811Z,100987.50
2022-08-03T13:55:13.551Z,100987.45
2022-08-03T13:58:02.920Z,100980.67
2022-08-03T14:00:29.325Z,100979.23
2022-08-03T14:03:12.611Z,100978.88
2022-08-03T14:05:40.970Z,100978.75
2022-08-03T14:08:08.128Z,100977.65
2022-08-03T14:10:39.224Z,100978.73
2022-08-03T14:13:07.065Z,100971.55
2022-08-03T14:15:37.542Z,100971.40
2022-08-03T14:18:12.618Z,100967.23
2022-08-03T14:20:48.805Z,100962.85
2022-08-03T14:23:19.240Z,100963.00
2022-08-03T14:25:52.068Z,100963.13
2022-08-03T14:28:24.561Z,100961.08
2022-08-03T14:30:53.762Z,100961.88
2022-08-03T14:33:20.743Z,100961.90
2022-08-03T14:35:48.208Z,100959.19
2022-08-03T14:38:15.935Z,100958.64
2022-08-03T14:40:44.735Z,100957.38
2022-08-03T14:43:11.527Z,100954.46
2022-08-03T14:45:40.470Z,100958.00
2022-08-03T14:50:31.971Z,100958.26
2022-08-03T14:50:55.394Z,100956.41
2022-08-03T14:53:23.408Z,100948.57
2022-08-03T14:55:51.858Z,100950.83
2022-08-03T14:58:25.205Z,100950.36
2022-08-03T15:00:54.817Z,100948.39
2022-08-03T15:03:25.004Z,100944.78
2022-08-03T15:05:56.850Z,100940.48
2022-08-03T15:08:26.229Z,100937.15
2022-08-03T15:10:54.791Z,100938.19
2022-08-03T15:13:22.971Z,100934.21
2022-08-03T15:15:50.128Z,100934.12
2022-08-03T15:18:16.999Z,100927.19
2022-08-03T15:20:45.976Z,100930.33
2022-08-03T15:23:15.844Z,100928.23
2022-08-03T15:26:28.962Z,100925.44
2022-08-03T15:28:34.892Z,100925.70
2022-08-03T15:31:05.843Z,100920.26
2022-08-03T15:33:32.722Z,100921.58
2022-08-03T15:36:02.280Z,100923.39
2022-08-03T15:38:29.053Z,100922.30
2022-08-03T15:40:56.086Z,100922.07
2022-08-03T15:43:24.756Z,100920.27
2022-08-03T15:46:12.780Z,100916.94
2022-08-03T15:48:40.558Z,100918.55
2022-08-03T15:51:08.524Z,100916.86
2022-08-03T15:53:36.085Z,100920.05
2022-08-03T15:56:08.017Z,100919.21
2022-08-03T15:59:09.775Z,100919.11
2022-08-03T16:01:26.989Z,100920.31
2022-08-03T16:03:54.327Z,100918.91
2022-08-03T16:06:35.404Z,100912.98
2022-08-03T16:09:22.983Z,100912.16
2022-08-03T16:11:55.828Z,100908.16
2022-08-03T16:14:34.854Z,100908.02
2022-08-03T16:17:07.318Z,100911.91
2022-08-03T16:19:34.172Z,100911.56
2022-08-03T16:22:03.154Z,100912.07
2022-08-03T16:24:30.492Z,100911.61
2022-08-03T16:26:57.256Z,100906.14
2022-08-03T16:29:24.354Z,100903.08
2022-08-03T16:31:52.980Z,100909.52
2022-08-03T16:34:21.291Z,100910.70
2022-08-03T16:36:48.086Z,100911.38
2022-08-03T16:39:15.009Z,100904.73
2022-08-03T16:41:53.976Z,100902.98
2022-08-03T16:44:30.604Z,100903.48
2022-08-03T16:46:58.906Z,100901.86
2022-08-03T16:49:55.468Z,100905.11
2022-08-03T16:52:13.244Z,100905.52
2022-08-03T16:54:40.739Z,100904.55
2022-08-03T16:57:08.622Z,100903.13
2022-08-03T16:59:36.946Z,100906.40
2022-08-03T17:02:10.193Z,100906.57
2022-08-03T17:04:40.178Z,100904.50
2022-08-03T17:07:08.838Z,100905.73
2022-08-03T17:09:38.162Z,100907.91
2022-08-03T17:12:10.901Z,100907.89
2022-08-03T17:14:39.370Z,100907.23
2022-08-03T17:17:26.466Z,100915.32
2022-08-03T17:19:55.377Z,100916.22
2022-08-03T17:22:31.551Z,100914.79
2022-08-03T17:25:07.666Z,100919.40
2022-08-03T17:28:51.021Z,100919.20
2022-08-03T17:30:43.461Z,100919.55
2022-08-03T17:33:20.489Z,100917.59
2022-08-03T17:35:47.851Z,100918.59
2022-08-03T17:38:22.427Z,100923.47
2022-08-03T17:40:52.012Z,100924.35
2022-08-03T17:44:13.195Z,100930.11
2022-08-03T17:46:07.352Z,100927.19
2022-08-03T17:48:41.476Z,100936.94
2022-08-03T17:51:17.856Z,100933.54
2022-08-03T17:54:18.180Z,100938.72
2022-08-03T18:00:46.112Z,100943.01
2022-08-03T18:06:55.658Z,100937.15
2022-08-03T18:10:05.726Z,100938.03
2022-08-03T18:12:27.254Z,100940.60
2022-08-03T18:15:01.519Z,100944.72
2022-08-03T18:17:54.978Z,100948.89
2022-08-03T18:20:34.246Z,100950.66
2022-08-03T18:23:10.327Z,100952.31
2022-08-03T18:25:50.055Z,100951.18
2022-08-03T18:28:23.298Z,100952.36
2022-08-03T18:30:53.091Z,100949.42
2022-08-03T18:34:19.464Z,100948.77
2022-08-03T18:36:22.148Z,100951.48
2022-08-03T18:39:02.653Z,100952.19
2022-08-03T18:41:34.593Z,100955.16
2022-08-03T18:44:08.469Z,100953.51
2022-08-03T18:47:20.862Z,100952.98
2022-08-03T18:50:19.076Z,100956.33
2022-08-03T18:52:58.935Z,100956.83
2022-08-03T18:55:35.795Z,100954.20
2022-08-03T18:58:39.665Z,100959.61
2022-08-03T19:02:00.022Z,100958.10
2022-08-03T19:04:45.267Z,100957.55
2022-08-03T19:07:22.165Z,100960.25
2022-08-03T19:09:58.406Z,100964.64
2022-08-03T19:12:33.840Z,100965.69
2022-08-03T19:15:12.626Z,100969.77
2022-08-03T19:17:50.076Z,100967.67
2022-08-03T19:20:31.079Z,100968.07
2022-08-03T19:22:59.837Z,100974.48
2022-08-03T19:25:34.317Z,100975.34
2022-08-03T19:28:06.043Z,100977.08
2022-08-03T19:30:46.298Z,100979.50
2022-08-03T19:33:20.856Z,100977.84
2022-08-03T19:35:55.275Z,100976.48
2022-08-03T19:38:28.622Z,100979.54
2022-08-03T19:41:03.700Z,100977.56
2022-08-03T19:43:49.423Z,100975.61
2022-08-03T19:46:30.721Z,100976.84
2022-08-03T19:49:16.633Z,100975.38
2022-08-03T19:52:01.864Z,100975.61
2022-08-03T19:55:00.396Z,100976.20
2022-08-03T19:57:29.545Z,100974.84
2022-08-03T19:59:57.886Z,100973.77
2022-08-03T20:02:26.908Z,100972.66
2022-08-03T20:04:57.399Z,100971.49
2022-08-03T20:07:27.948Z,100969.77
2022-08-03T20:09:56.470Z,100969.50
2022-08-03T20:12:28.550Z,100968.33
2022-08-03T20:14:57.921Z,100966.17
2022-08-03T20:17:56.219Z,100964.68
2022-08-03T20:20:18.532Z,100964.84
2022-08-03T20:22:52.638Z,100968.96
2022-08-03T20:25:58.473Z,100967.80
2022-08-03T20:28:32.889Z,100966.05
2022-08-03T20:31:00.226Z,100965.95
2022-08-03T20:33:48.826Z,100969.27
2022-08-03T20:36:17.805Z,100970.02
2022-08-03T20:38:50.180Z,100969.07
2022-08-03T20:41:19.394Z,100971.41
2022-08-03T20:46:50.242Z,100967.70
2022-08-03T20:49:23.554Z,100970.77
2022-08-03T20:51:53.220Z,100969.92
2022-08-03T20:54:30.737Z,100972.36
2022-08-03T20:57:04.113Z,100974.45
2022-08-03T20:59:47.126Z,100974.60
2022-08-03T21:05:09.317Z,100972.04
2022-08-03T21:08:07.154Z,100975.52
2022-08-03T21:10:42.007Z,100975.63
2022-08-03T21:12:56.491Z,100943.72
2022-08-03T21:13:04.167Z,100937.63
2022-08-03T21:13:07.897Z,100974.23
2022-08-03T21:13:12.684Z,100970.84
2022-08-03T21:13:27.822Z,100973.81
2022-08-03T21:16:02.644Z,100973.90
2022-08-03T21:18:47.399Z,100975.06
2022-08-03T21:21:18.654Z,100976.73
2022-08-03T21:23:53.354Z,100976.46
2022-08-03T21:26:24.247Z,100978.39
2022-08-03T21:28:55.040Z,100979.23
2022-08-03T21:31:26.447Z,100977.63
2022-08-03T21:34:05.862Z,100974.89
2022-08-03T21:36:36.629Z,100975.98
2022-08-03T21:39:08.493Z,100976.17
2022-08-03T21:41:38.255Z,100975.61
2022-08-03T21:44:06.946Z,100977.89
2022-08-03T21:46:41.028Z,100973.80
2022-08-03T21:50:07.377Z,100976.11
2022-08-03T21:52:02.850Z,100974.90
2022-08-03T21:54:40.847Z,100976.79
2022-08-03T21:57:25.943Z,100974.25
2022-08-03T22:00:00.604Z,100979.60
2022-08-03T22:02:31.532Z,100974.38
2022-08-03T22:04:59.376Z,100981.27
2022-08-03T22:07:28.946Z,100982.95
2022-08-03T22:09:58.585Z,100982.77
2022-08-03T22:12:29.573Z,100982.64
2022-08-03T22:15:01.109Z,100980.58
2022-08-03T22:17:55.079Z,100982.86
2022-08-03T22:20:19.911Z,100987.44
2022-08-03T22:22:55.729Z,100988.51
2022-08-03T22:25:33.342Z,100994.59
2022-08-03T22:28:10.424Z,100992.13
2022-08-03T22:30:38.730Z,100994.27
2022-08-03T22:33:11.032Z,100995.15
2022-08-03T22:35:49.163Z,100995.95
2022-08-03T22:38:18.591Z,100993.01
2022-08-03T22:40:50.840Z,100992.51
2022-08-03T22:43:22.748Z,100993.64
2022-08-03T22:46:10.338Z,100995.30
2022-08-03T22:48:40.890Z,100996.38
2022-08-03T22:51:10.013Z,100995.27
2022-08-03T22:53:39.590Z,100997.09
2022-08-03T22:56:07.160Z,100996.39
2022-08-03T22:58:33.896Z,100995.16
2022-08-03T23:01:11.816Z,100997.64
2022-08-03T23:04:00.985Z,100999.95
2022-08-03T23:06:38.596Z,101000.14
2022-08-03T23:09:13.883Z,100997.91
2022-08-03T23:11:45.751Z,100997.09
2022-08-03T23:14:18.523Z,100993.90
2022-08-03T23:16:47.475Z,101003.55
2022-08-03T23:19:25.602Z,101000.78
2022-08-03T23:22:02.127Z,100996.70
2022-08-03T23:24:33.273Z,100997.80
2022-08-03T23:27:08.212Z,100995.61
2022-08-03T23:29:43.301Z,100996.63
2022-08-03T23:32:12.960Z,100996.14
2022-08-03T23:34:59.442Z,100996.42
2022-08-03T23:37:27.030Z,100995.23
2022-08-03T23:39:57.422Z,100996.23
2022-08-03T23:42:25.416Z,100995.20
2022-08-03T23:45:04.707Z,100990.29
2022-08-03T23:47:47.287Z,100992.55
2022-08-03T23:50:15.015Z,100993.54
2022-08-03T23:53:09.666Z,100992.85
2022-08-03T23:56:28.322Z,100994.36
2022-08-03T23:59:39.502Z,100993.13
